sensor_id;sensor_type;location;lat;lon;timestamp;P1;durP1;ratioP1;P2;durP2;ratioP2
67902;SDS011;54708;43.612;1.568;2024-03-07T00:00:10;9.13;;;3.55;;
67902;SDS011;54708;43.612;1.568;2024-03-07T00:02:41;4.18;;;3.40;;
67902;SDS011;54708;43.612;1.568;2024-03-07T00:05:07;6.35;;;3.05;;
67902;SDS011;54708;43.612;1.568;2024-03-07T00:07:33;6.78;;;3.00;;
67902;SDS011;54708;43.612;1.568;2024-03-07T00:09:59;6.97;;;3.22;;
67902;SDS011;54708;43.612;1.568;2024-03-07T00:12:25;6.40;;;3.53;;
67902;SDS011;54708;43.612;1.568;2024-03-07T00:14:52;10.40;;;5.05;;
67902;SDS011;54708;43.612;1.568;2024-03-07T00:17:17;10.05;;;4.13;;
67902;SDS011;54708;43.612;1.568;2024-03-07T00:19:44;6.13;;;3.15;;
67902;SDS011;54708;43.612;1.568;2024-03-07T00:22:10;12.70;;;6.43;;
67902;SDS011;54708;43.612;1.568;2024-03-07T00:24:35;20.02;;;7.53;;
67902;SDS011;54708;43.612;1.568;2024-03-07T00:27:02;5.95;;;4.22;;
67902;SDS011;54708;43.612;1.568;2024-03-07T00:29:28;7.05;;;3.53;;
67902;SDS011;54708;43.612;1.568;2024-03-07T00:31:54;11.15;;;3.70;;
67902;SDS011;54708;43.612;1.568;2024-03-07T00:34:19;8.02;;;5.00;;
67902;SDS011;54708;43.612;1.568;2024-03-07T00:36:46;14.52;;;6.40;;
67902;SDS011;54708;43.612;1.568;2024-03-07T00:39:11;6.07;;;3.92;;
67902;SDS011;54708;43.612;1.568;2024-03-07T00:41:38;4.57;;;3.25;;
67902;SDS011;54708;43.612;1.568;2024-03-07T00:44:04;10.68;;;4.30;;
67902;SDS011;54708;43.612;1.568;2024-03-07T00:46:29;19.17;;;6.00;;
67902;SDS011;54708;43.612;1.568;2024-03-07T00:48:54;7.80;;;4.60;;
67902;SDS011;54708;43.612;1.568;2024-03-07T00:51:20;5.57;;;3.67;;
67902;SDS011;54708;43.612;1.568;2024-03-07T00:53:45;6.88;;;3.63;;
67902;SDS011;54708;43.612;1.568;2024-03-07T00:56:12;7.22;;;4.05;;
67902;SDS011;54708;43.612;1.568;2024-03-07T00:58:37;6.55;;;3.38;;
67902;SDS011;54708;43.612;1.568;2024-03-07T01:01:02;7.75;;;4.15;;
67902;SDS011;54708;43.612;1.568;2024-03-07T01:03:28;7.65;;;3.88;;
67902;SDS011;54708;43.612;1.568;2024-03-07T01:05:53;5.97;;;3.58;;
67902;SDS011;54708;43.612;1.568;2024-03-07T01:08:19;8.60;;;3.47;;
67902;SDS011;54708;43.612;1.568;2024-03-07T01:10:45;10.70;;;3.65;;
67902;SDS011;54708;43.612;1.568;2024-03-07T01:13:10;6.20;;;3.25;;
67902;SDS011;54708;43.612;1.568;2024-03-07T01:15:44;8.60;;;3.67;;
67902;SDS011;54708;43.612;1.568;2024-03-07T01:18:09;7.00;;;3.10;;
67902;SDS011;54708;43.612;1.568;2024-03-07T01:20:35;5.00;;;3.33;;
67902;SDS011;54708;43.612;1.568;2024-03-07T01:23:00;7.25;;;3.58;;
67902;SDS011;54708;43.612;1.568;2024-03-07T01:25:26;4.22;;;3.10;;
67902;SDS011;54708;43.612;1.568;2024-03-07T01:27:52;5.97;;;2.88;;
67902;SDS011;54708;43.612;1.568;2024-03-07T01:30:17;8.18;;;3.63;;
67902;SDS011;54708;43.612;1.568;2024-03-07T01:32:43;5.55;;;3.35;;
67902;SDS011;54708;43.612;1.568;2024-03-07T01:35:08;5.53;;;3.53;;
67902;SDS011;54708;43.612;1.568;2024-03-07T01:37:35;7.57;;;3.30;;
67902;SDS011;54708;43.612;1.568;2024-03-07T01:40:01;6.90;;;3.47;;
67902;SDS011;54708;43.612;1.568;2024-03-07T01:42:28;6.85;;;3.97;;
67902;SDS011;54708;43.612;1.568;2024-03-07T01:44:53;3.50;;;3.03;;
67902;SDS011;54708;43.612;1.568;2024-03-07T01:47:18;9.32;;;3.72;;
67902;SDS011;54708;43.612;1.568;2024-03-07T01:49:44;10.52;;;4.55;;
67902;SDS011;54708;43.612;1.568;2024-03-07T01:52:09;7.55;;;4.47;;
67902;SDS011;54708;43.612;1.568;2024-03-07T01:54:36;5.63;;;3.72;;
67902;SDS011;54708;43.612;1.568;2024-03-07T01:57:01;4.28;;;3.50;;
67902;SDS011;54708;43.612;1.568;2024-03-07T01:59:28;5.75;;;3.72;;
67902;SDS011;54708;43.612;1.568;2024-03-07T02:01:55;11.73;;;3.72;;
67902;SDS011;54708;43.612;1.568;2024-03-07T02:04:21;7.90;;;3.85;;
67902;SDS011;54708;43.612;1.568;2024-03-07T02:06:47;7.80;;;3.60;;
67902;SDS011;54708;43.612;1.568;2024-03-07T02:09:12;5.50;;;3.90;;
67902;SDS011;54708;43.612;1.568;2024-03-07T02:11:39;4.20;;;3.63;;
67902;SDS011;54708;43.612;1.568;2024-03-07T02:14:04;6.35;;;3.30;;
67902;SDS011;54708;43.612;1.568;2024-03-07T02:16:30;5.40;;;3.83;;
67902;SDS011;54708;43.612;1.568;2024-03-07T02:18:56;8.70;;;4.20;;
67902;SDS011;54708;43.612;1.568;2024-03-07T02:21:21;6.57;;;4.10;;
67902;SDS011;54708;43.612;1.568;2024-03-07T02:23:48;8.05;;;4.43;;
67902;SDS011;54708;43.612;1.568;2024-03-07T02:26:13;7.95;;;3.92;;
67902;SDS011;54708;43.612;1.568;2024-03-07T02:28:38;6.57;;;3.35;;
67902;SDS011;54708;43.612;1.568;2024-03-07T02:31:04;6.15;;;4.13;;
67902;SDS011;54708;43.612;1.568;2024-03-07T02:33:29;5.82;;;4.32;;
67902;SDS011;54708;43.612;1.568;2024-03-07T02:35:57;7.85;;;4.13;;
67902;SDS011;54708;43.612;1.568;2024-03-07T02:38:22;7.07;;;3.88;;
67902;SDS011;54708;43.612;1.568;2024-03-07T02:40:48;7.78;;;4.60;;
67902;SDS011;54708;43.612;1.568;2024-03-07T02:43:13;6.00;;;3.75;;
67902;SDS011;54708;43.612;1.568;2024-03-07T02:45:39;7.18;;;3.78;;
67902;SDS011;54708;43.612;1.568;2024-03-07T02:48:04;7.57;;;3.00;;
67902;SDS011;54708;43.612;1.568;2024-03-07T02:50:34;5.05;;;3.40;;
67902;SDS011;54708;43.612;1.568;2024-03-07T02:53:00;4.40;;;2.95;;
67902;SDS011;54708;43.612;1.568;2024-03-07T02:55:25;4.35;;;3.60;;
67902;SDS011;54708;43.612;1.568;2024-03-07T02:57:51;5.47;;;3.88;;
67902;SDS011;54708;43.612;1.568;2024-03-07T03:00:17;4.65;;;3.38;;
67902;SDS011;54708;43.612;1.568;2024-03-07T03:02:48;4.80;;;4.20;;
67902;SDS011;54708;43.612;1.568;2024-03-07T03:05:14;7.25;;;4.20;;
67902;SDS011;54708;43.612;1.568;2024-03-07T03:07:41;9.48;;;3.42;;
67902;SDS011;54708;43.612;1.568;2024-03-07T03:10:07;6.35;;;3.88;;
67902;SDS011;54708;43.612;1.568;2024-03-07T03:12:36;4.78;;;3.38;;
67902;SDS011;54708;43.612;1.568;2024-03-07T03:15:02;4.38;;;3.20;;
67902;SDS011;54708;43.612;1.568;2024-03-07T03:17:31;5.57;;;2.55;;
67902;SDS011;54708;43.612;1.568;2024-03-07T03:19:56;6.25;;;3.67;;
67902;SDS011;54708;43.612;1.568;2024-03-07T03:22:21;6.05;;;3.17;;
67902;SDS011;54708;43.612;1.568;2024-03-07T03:24:47;5.88;;;2.95;;
67902;SDS011;54708;43.612;1.568;2024-03-07T03:27:12;4.70;;;2.90;;
67902;SDS011;54708;43.612;1.568;2024-03-07T03:29:37;8.13;;;3.40;;
67902;SDS011;54708;43.612;1.568;2024-03-07T03:32:03;4.70;;;2.95;;
67902;SDS011;54708;43.612;1.568;2024-03-07T03:34:29;7.82;;;2.97;;
67902;SDS011;54708;43.612;1.568;2024-03-07T03:36:54;3.35;;;2.15;;
67902;SDS011;54708;43.612;1.568;2024-03-07T03:39:19;3.42;;;2.78;;
67902;SDS011;54708;43.612;1.568;2024-03-07T03:41:45;4.65;;;2.70;;
67902;SDS011;54708;43.612;1.568;2024-03-07T03:44:11;5.15;;;3.05;;
67902;SDS011;54708;43.612;1.568;2024-03-07T03:46:36;10.18;;;3.65;;
67902;SDS011;54708;43.612;1.568;2024-03-07T03:49:02;3.65;;;2.55;;
67902;SDS011;54708;43.612;1.568;2024-03-07T03:51:27;6.78;;;2.95;;
67902;SDS011;54708;43.612;1.568;2024-03-07T03:53:53;4.57;;;2.47;;
67902;SDS011;54708;43.612;1.568;2024-03-07T03:56:18;7.57;;;3.08;;
67902;SDS011;54708;43.612;1.568;2024-03-07T03:58:44;2.25;;;2.03;;
67902;SDS011;54708;43.612;1.568;2024-03-07T04:01:09;4.50;;;2.65;;
67902;SDS011;54708;43.612;1.568;2024-03-07T04:03:38;4.25;;;2.42;;
67902;SDS011;54708;43.612;1.568;2024-03-07T04:06:04;5.15;;;2.92;;
67902;SDS011;54708;43.612;1.568;2024-03-07T04:08:29;2.80;;;2.22;;
67902;SDS011;54708;43.612;1.568;2024-03-07T04:10:55;3.25;;;2.50;;
67902;SDS011;54708;43.612;1.568;2024-03-07T04:13:20;2.63;;;2.40;;
67902;SDS011;54708;43.612;1.568;2024-03-07T04:15:47;2.90;;;2.40;;
67902;SDS011;54708;43.612;1.568;2024-03-07T04:18:12;3.88;;;2.10;;
67902;SDS011;54708;43.612;1.568;2024-03-07T04:20:38;2.97;;;2.25;;
67902;SDS011;54708;43.612;1.568;2024-03-07T04:23:04;2.60;;;2.00;;
67902;SDS011;54708;43.612;1.568;2024-03-07T04:25:30;3.78;;;2.15;;
67902;SDS011;54708;43.612;1.568;2024-03-07T04:27:58;5.80;;;3.00;;
67902;SDS011;54708;43.612;1.568;2024-03-07T04:30:24;4.25;;;2.88;;
67902;SDS011;54708;43.612;1.568;2024-03-07T04:32:49;8.07;;;2.70;;
67902;SDS011;54708;43.612;1.568;2024-03-07T04:35:14;4.07;;;2.10;;
67902;SDS011;54708;43.612;1.568;2024-03-07T04:37:40;3.63;;;2.80;;
67902;SDS011;54708;43.612;1.568;2024-03-07T04:40:07;3.90;;;2.50;;
67902;SDS011;54708;43.612;1.568;2024-03-07T04:42:44;3.72;;;2.40;;
67902;SDS011;54708;43.612;1.568;2024-03-07T04:45:11;4.50;;;2.95;;
67902;SDS011;54708;43.612;1.568;2024-03-07T04:47:38;3.85;;;2.67;;
67902;SDS011;54708;43.612;1.568;2024-03-07T04:50:05;6.78;;;2.35;;
67902;SDS011;54708;43.612;1.568;2024-03-07T04:52:30;2.67;;;1.92;;
67902;SDS011;54708;43.612;1.568;2024-03-07T04:54:56;2.40;;;1.80;;
67902;SDS011;54708;43.612;1.568;2024-03-07T04:57:21;3.35;;;3.08;;
67902;SDS011;54708;43.612;1.568;2024-03-07T04:59:46;3.00;;;2.35;;
67902;SDS011;54708;43.612;1.568;2024-03-07T05:02:12;2.85;;;2.58;;
67902;SDS011;54708;43.612;1.568;2024-03-07T05:04:38;3.15;;;2.03;;
67902;SDS011;54708;43.612;1.568;2024-03-07T05:07:04;2.78;;;2.17;;
67902;SDS011;54708;43.612;1.568;2024-03-07T05:09:29;3.00;;;2.40;;
67902;SDS011;54708;43.612;1.568;2024-03-07T05:11:54;3.58;;;2.08;;
67902;SDS011;54708;43.612;1.568;2024-03-07T05:14:20;6.40;;;2.17;;
67902;SDS011;54708;43.612;1.568;2024-03-07T05:16:47;3.05;;;1.95;;
67902;SDS011;54708;43.612;1.568;2024-03-07T05:19:30;3.15;;;1.92;;
67902;SDS011;54708;43.612;1.568;2024-03-07T05:21:56;2.85;;;2.50;;
67902;SDS011;54708;43.612;1.568;2024-03-07T05:24:21;4.82;;;2.03;;
67902;SDS011;54708;43.612;1.568;2024-03-07T05:26:47;3.75;;;1.67;;
67902;SDS011;54708;43.612;1.568;2024-03-07T05:29:12;2.70;;;1.98;;
67902;SDS011;54708;43.612;1.568;2024-03-07T05:31:38;2.42;;;1.58;;
67902;SDS011;54708;43.612;1.568;2024-03-07T05:34:09;4.72;;;2.50;;
67902;SDS011;54708;43.612;1.568;2024-03-07T05:36:34;4.15;;;1.73;;
67902;SDS011;54708;43.612;1.568;2024-03-07T05:39:13;3.33;;;1.80;;
67902;SDS011;54708;43.612;1.568;2024-03-07T05:41:43;2.17;;;1.63;;
67902;SDS011;54708;43.612;1.568;2024-03-07T05:44:12;3.42;;;1.42;;
67902;SDS011;54708;43.612;1.568;2024-03-07T05:46:38;2.42;;;1.90;;
67902;SDS011;54708;43.612;1.568;2024-03-07T05:49:07;3.45;;;2.15;;
67902;SDS011;54708;43.612;1.568;2024-03-07T05:51:33;4.20;;;1.80;;
67902;SDS011;54708;43.612;1.568;2024-03-07T05:53:58;4.22;;;2.50;;
67902;SDS011;54708;43.612;1.568;2024-03-07T05:56:24;2.70;;;1.90;;
67902;SDS011;54708;43.612;1.568;2024-03-07T05:58:49;2.40;;;1.77;;
67902;SDS011;54708;43.612;1.568;2024-03-07T06:01:16;2.25;;;1.90;;
67902;SDS011;54708;43.612;1.568;2024-03-07T06:03:43;3.10;;;2.20;;
67902;SDS011;54708;43.612;1.568;2024-03-07T06:06:09;4.00;;;2.25;;
67902;SDS011;54708;43.612;1.568;2024-03-07T06:08:36;2.85;;;1.67;;
67902;SDS011;54708;43.612;1.568;2024-03-07T06:11:03;4.82;;;2.10;;
67902;SDS011;54708;43.612;1.568;2024-03-07T06:13:28;5.60;;;2.80;;
67902;SDS011;54708;43.612;1.568;2024-03-07T06:15:53;3.10;;;1.70;;
67902;SDS011;54708;43.612;1.568;2024-03-07T06:18:19;3.30;;;2.10;;
67902;SDS011;54708;43.612;1.568;2024-03-07T06:20:44;3.80;;;2.17;;
67902;SDS011;54708;43.612;1.568;2024-03-07T06:23:10;2.85;;;1.88;;
67902;SDS011;54708;43.612;1.568;2024-03-07T06:25:41;4.55;;;2.38;;
67902;SDS011;54708;43.612;1.568;2024-03-07T06:28:12;1.73;;;1.52;;
67902;SDS011;54708;43.612;1.568;2024-03-07T06:30:39;5.30;;;2.10;;
67902;SDS011;54708;43.612;1.568;2024-03-07T06:33:07;7.15;;;1.90;;
67902;SDS011;54708;43.612;1.568;2024-03-07T06:35:33;5.75;;;2.33;;
67902;SDS011;54708;43.612;1.568;2024-03-07T06:38:08;3.65;;;2.25;;
67902;SDS011;54708;43.612;1.568;2024-03-07T06:40:34;2.83;;;2.30;;
67902;SDS011;54708;43.612;1.568;2024-03-07T06:43:03;9.68;;;2.83;;
67902;SDS011;54708;43.612;1.568;2024-03-07T06:45:29;4.90;;;2.35;;
67902;SDS011;54708;43.612;1.568;2024-03-07T06:47:55;5.65;;;3.22;;
67902;SDS011;54708;43.612;1.568;2024-03-07T06:50:20;4.65;;;2.97;;
67902;SDS011;54708;43.612;1.568;2024-03-07T06:52:46;4.13;;;2.53;;
67902;SDS011;54708;43.612;1.568;2024-03-07T06:55:14;4.38;;;2.40;;
67902;SDS011;54708;43.612;1.568;2024-03-07T06:57:43;3.20;;;2.70;;
67902;SDS011;54708;43.612;1.568;2024-03-07T07:00:08;3.58;;;2.60;;
67902;SDS011;54708;43.612;1.568;2024-03-07T07:02:38;5.10;;;3.05;;
67902;SDS011;54708;43.612;1.568;2024-03-07T07:05:05;5.35;;;2.83;;
67902;SDS011;54708;43.612;1.568;2024-03-07T07:07:36;6.68;;;3.80;;
67902;SDS011;54708;43.612;1.568;2024-03-07T07:10:04;5.55;;;2.63;;
67902;SDS011;54708;43.612;1.568;2024-03-07T07:12:33;4.80;;;3.20;;
67902;SDS011;54708;43.612;1.568;2024-03-07T07:15:00;7.15;;;3.35;;
67902;SDS011;54708;43.612;1.568;2024-03-07T07:17:25;6.20;;;2.53;;
67902;SDS011;54708;43.612;1.568;2024-03-07T07:19:54;8.90;;;3.63;;
67902;SDS011;54708;43.612;1.568;2024-03-07T07:22:20;8.70;;;3.60;;
67902;SDS011;54708;43.612;1.568;2024-03-07T07:24:46;12.00;;;5.45;;
67902;SDS011;54708;43.612;1.568;2024-03-07T07:27:11;8.05;;;4.03;;
67902;SDS011;54708;43.612;1.568;2024-03-07T07:29:37;3.38;;;2.30;;
67902;SDS011;54708;43.612;1.568;2024-03-07T07:32:02;10.02;;;2.95;;
67902;SDS011;54708;43.612;1.568;2024-03-07T07:34:28;6.43;;;2.17;;
67902;SDS011;54708;43.612;1.568;2024-03-07T07:36:55;4.00;;;2.15;;
67902;SDS011;54708;43.612;1.568;2024-03-07T07:39:20;3.38;;;1.90;;
67902;SDS011;54708;43.612;1.568;2024-03-07T07:41:46;2.97;;;1.90;;
67902;SDS011;54708;43.612;1.568;2024-03-07T07:44:11;2.17;;;1.80;;
67902;SDS011;54708;43.612;1.568;2024-03-07T07:46:37;2.65;;;1.35;;
67902;SDS011;54708;43.612;1.568;2024-03-07T07:49:02;4.63;;;1.63;;
67902;SDS011;54708;43.612;1.568;2024-03-07T07:51:28;5.88;;;1.55;;
67902;SDS011;54708;43.612;1.568;2024-03-07T07:53:53;3.95;;;1.77;;
67902;SDS011;54708;43.612;1.568;2024-03-07T07:56:21;3.30;;;1.40;;
67902;SDS011;54708;43.612;1.568;2024-03-07T07:58:47;10.02;;;1.50;;
67902;SDS011;54708;43.612;1.568;2024-03-07T08:01:13;1.58;;;1.05;;
67902;SDS011;54708;43.612;1.568;2024-03-07T08:03:40;3.92;;;1.48;;
67902;SDS011;54708;43.612;1.568;2024-03-07T08:06:06;3.63;;;1.52;;
67902;SDS011;54708;43.612;1.568;2024-03-07T08:08:31;1.95;;;0.95;;
67902;SDS011;54708;43.612;1.568;2024-03-07T08:10:57;4.55;;;1.40;;
67902;SDS011;54708;43.612;1.568;2024-03-07T08:13:24;1.55;;;0.93;;
67902;SDS011;54708;43.612;1.568;2024-03-07T08:15:50;6.05;;;2.33;;
67902;SDS011;54708;43.612;1.568;2024-03-07T08:18:15;1.65;;;1.00;;
67902;SDS011;54708;43.612;1.568;2024-03-07T08:20:42;7.18;;;1.95;;
67902;SDS011;54708;43.612;1.568;2024-03-07T08:23:08;2.38;;;1.58;;
67902;SDS011;54708;43.612;1.568;2024-03-07T08:25:33;1.85;;;1.00;;
67902;SDS011;54708;43.612;1.568;2024-03-07T08:27:59;4.18;;;1.20;;
67902;SDS011;54708;43.612;1.568;2024-03-07T08:30:25;2.65;;;1.00;;
67902;SDS011;54708;43.612;1.568;2024-03-07T08:32:54;6.65;;;1.10;;
67902;SDS011;54708;43.612;1.568;2024-03-07T08:35:20;4.55;;;1.77;;
67902;SDS011;54708;43.612;1.568;2024-03-07T08:37:47;1.33;;;1.00;;
67902;SDS011;54708;43.612;1.568;2024-03-07T08:40:18;7.85;;;1.42;;
67902;SDS011;54708;43.612;1.568;2024-03-07T08:42:44;3.17;;;1.15;;
67902;SDS011;54708;43.612;1.568;2024-03-07T08:45:11;2.72;;;1.58;;
67902;SDS011;54708;43.612;1.568;2024-03-07T08:47:37;4.38;;;1.10;;
67902;SDS011;54708;43.612;1.568;2024-03-07T08:50:03;1.38;;;0.93;;
67902;SDS011;54708;43.612;1.568;2024-03-07T08:52:33;2.70;;;1.20;;
67902;SDS011;54708;43.612;1.568;2024-03-07T08:54:59;2.25;;;1.52;;
67902;SDS011;54708;43.612;1.568;2024-03-07T08:57:25;1.70;;;1.58;;
67902;SDS011;54708;43.612;1.568;2024-03-07T08:59:50;5.95;;;1.30;;
67902;SDS011;54708;43.612;1.568;2024-03-07T09:02:16;3.78;;;1.42;;
67902;SDS011;54708;43.612;1.568;2024-03-07T09:04:41;1.58;;;0.95;;
67902;SDS011;54708;43.612;1.568;2024-03-07T09:07:07;3.63;;;2.00;;
67902;SDS011;54708;43.612;1.568;2024-03-07T09:09:33;1.75;;;1.23;;
67902;SDS011;54708;43.612;1.568;2024-03-07T09:11:59;1.42;;;0.98;;
67902;SDS011;54708;43.612;1.568;2024-03-07T09:14:26;3.08;;;1.08;;
67902;SDS011;54708;43.612;1.568;2024-03-07T09:16:52;1.58;;;1.20;;
67902;SDS011;54708;43.612;1.568;2024-03-07T09:19:18;3.25;;;1.02;;
67902;SDS011;54708;43.612;1.568;2024-03-07T09:21:48;5.75;;;1.17;;
67902;SDS011;54708;43.612;1.568;2024-03-07T09:24:15;3.58;;;1.50;;
67902;SDS011;54708;43.612;1.568;2024-03-07T09:26:41;5.13;;;1.52;;
67902;SDS011;54708;43.612;1.568;2024-03-07T09:29:06;4.32;;;1.90;;
67902;SDS011;54708;43.612;1.568;2024-03-07T09:31:32;1.10;;;1.00;;
67902;SDS011;54708;43.612;1.568;2024-03-07T09:33:57;1.20;;;0.95;;
67902;SDS011;54708;43.612;1.568;2024-03-07T09:36:23;3.50;;;1.23;;
67902;SDS011;54708;43.612;1.568;2024-03-07T09:38:49;3.28;;;1.65;;
67902;SDS011;54708;43.612;1.568;2024-03-07T09:41:15;3.60;;;1.83;;
67902;SDS011;54708;43.612;1.568;2024-03-07T09:43:42;2.65;;;1.40;;
67902;SDS011;54708;43.612;1.568;2024-03-07T09:46:09;3.75;;;1.27;;
67902;SDS011;54708;43.612;1.568;2024-03-07T09:48:35;4.75;;;1.60;;
67902;SDS011;54708;43.612;1.568;2024-03-07T09:51:00;1.70;;;1.25;;
67902;SDS011;54708;43.612;1.568;2024-03-07T09:53:27;3.42;;;1.25;;
67902;SDS011;54708;43.612;1.568;2024-03-07T09:55:53;2.45;;;1.70;;
67902;SDS011;54708;43.612;1.568;2024-03-07T09:58:19;1.48;;;1.38;;
67902;SDS011;54708;43.612;1.568;2024-03-07T10:00:45;3.10;;;1.23;;
67902;SDS011;54708;43.612;1.568;2024-03-07T10:03:12;2.78;;;1.30;;
67902;SDS011;54708;43.612;1.568;2024-03-07T10:05:38;2.72;;;1.20;;
67902;SDS011;54708;43.612;1.568;2024-03-07T10:08:04;5.97;;;1.55;;
67902;SDS011;54708;43.612;1.568;2024-03-07T10:10:29;4.55;;;1.30;;
67902;SDS011;54708;43.612;1.568;2024-03-07T10:12:55;8.05;;;1.30;;
67902;SDS011;54708;43.612;1.568;2024-03-07T10:15:27;3.45;;;1.40;;
67902;SDS011;54708;43.612;1.568;2024-03-07T10:17:53;4.82;;;1.40;;
67902;SDS011;54708;43.612;1.568;2024-03-07T10:20:19;3.88;;;1.58;;
67902;SDS011;54708;43.612;1.568;2024-03-07T10:22:47;2.35;;;1.35;;
67902;SDS011;54708;43.612;1.568;2024-03-07T10:25:16;3.03;;;1.58;;
67902;SDS011;54708;43.612;1.568;2024-03-07T10:27:45;1.60;;;1.42;;
67902;SDS011;54708;43.612;1.568;2024-03-07T10:30:13;4.28;;;1.30;;
67902;SDS011;54708;43.612;1.568;2024-03-07T10:32:45;4.07;;;1.37;;
67902;SDS011;54708;43.612;1.568;2024-03-07T10:35:11;2.05;;;1.50;;
67902;SDS011;54708;43.612;1.568;2024-03-07T10:37:40;3.50;;;1.80;;
67902;SDS011;54708;43.612;1.568;2024-03-07T10:40:06;3.42;;;1.83;;
67902;SDS011;54708;43.612;1.568;2024-03-07T10:42:44;5.95;;;1.92;;
67902;SDS011;54708;43.612;1.568;2024-03-07T10:45:11;2.45;;;1.38;;
67902;SDS011;54708;43.612;1.568;2024-03-07T10:47:37;4.47;;;2.05;;
67902;SDS011;54708;43.612;1.568;2024-03-07T10:50:11;7.13;;;2.50;;
67902;SDS011;54708;43.612;1.568;2024-03-07T11:00:49;1.42;;;1.20;;
67902;SDS011;54708;43.612;1.568;2024-03-07T11:03:15;1.65;;;1.10;;
67902;SDS011;54708;43.612;1.568;2024-03-07T11:05:40;11.73;;;1.63;;
67902;SDS011;54708;43.612;1.568;2024-03-07T11:08:08;1.40;;;1.05;;
67902;SDS011;54708;43.612;1.568;2024-03-07T11:10:38;2.03;;;1.30;;
67902;SDS011;54708;43.612;1.568;2024-03-07T11:13:04;3.28;;;1.48;;
67902;SDS011;54708;43.612;1.568;2024-03-07T11:15:35;4.60;;;1.70;;
67902;SDS011;54708;43.612;1.568;2024-03-07T11:18:01;1.70;;;1.20;;
67902;SDS011;54708;43.612;1.568;2024-03-07T11:20:31;1.92;;;1.38;;
67902;SDS011;54708;43.612;1.568;2024-03-07T11:22:59;3.70;;;1.33;;
67902;SDS011;54708;43.612;1.568;2024-03-07T11:25:26;5.85;;;1.17;;
67902;SDS011;54708;43.612;1.568;2024-03-07T11:27:55;1.38;;;1.25;;
67902;SDS011;54708;43.612;1.568;2024-03-07T11:30:25;2.05;;;1.17;;
67902;SDS011;54708;43.612;1.568;2024-03-07T11:32:51;3.85;;;1.48;;
67902;SDS011;54708;43.612;1.568;2024-03-07T11:35:19;6.40;;;1.35;;
67902;SDS011;54708;43.612;1.568;2024-03-07T11:37:50;1.60;;;1.15;;
67902;SDS011;54708;43.612;1.568;2024-03-07T11:42:49;1.83;;;1.52;;
67902;SDS011;54708;43.612;1.568;2024-03-07T11:45:16;2.15;;;1.38;;
67902;SDS011;54708;43.612;1.568;2024-03-07T11:47:58;1.98;;;1.33;;
67902;SDS011;54708;43.612;1.568;2024-03-07T11:50:38;4.07;;;1.65;;
67902;SDS011;54708;43.612;1.568;2024-03-07T11:53:06;6.60;;;1.60;;
67902;SDS011;54708;43.612;1.568;2024-03-07T11:55:37;3.72;;;2.00;;
67902;SDS011;54708;43.612;1.568;2024-03-07T11:58:14;2.05;;;1.10;;
67902;SDS011;54708;43.612;1.568;2024-03-07T12:00:44;2.80;;;1.45;;
67902;SDS011;54708;43.612;1.568;2024-03-07T12:03:13;4.20;;;1.60;;
67902;SDS011;54708;43.612;1.568;2024-03-07T12:05:42;1.80;;;1.33;;
67902;SDS011;54708;43.612;1.568;2024-03-07T12:08:08;3.40;;;1.40;;
67902;SDS011;54708;43.612;1.568;2024-03-07T12:10:36;2.92;;;1.45;;
67902;SDS011;54708;43.612;1.568;2024-03-07T12:13:08;1.80;;;1.05;;
67902;SDS011;54708;43.612;1.568;2024-03-07T12:15:36;4.70;;;1.50;;
67902;SDS011;54708;43.612;1.568;2024-03-07T12:18:03;2.92;;;1.73;;
67902;SDS011;54708;43.612;1.568;2024-03-07T12:20:29;2.72;;;1.27;;
67902;SDS011;54708;43.612;1.568;2024-03-07T12:22:58;6.13;;;1.83;;
67902;SDS011;54708;43.612;1.568;2024-03-07T12:25:31;3.50;;;1.20;;
67902;SDS011;54708;43.612;1.568;2024-03-07T12:28:00;2.88;;;1.60;;
67902;SDS011;54708;43.612;1.568;2024-03-07T12:30:47;4.40;;;1.50;;
67902;SDS011;54708;43.612;1.568;2024-03-07T12:33:17;4.10;;;1.10;;
67902;SDS011;54708;43.612;1.568;2024-03-07T12:35:44;1.95;;;1.20;;
67902;SDS011;54708;43.612;1.568;2024-03-07T12:38:15;2.47;;;1.38;;
67902;SDS011;54708;43.612;1.568;2024-03-07T12:40:42;4.68;;;1.45;;
67902;SDS011;54708;43.612;1.568;2024-03-07T12:43:17;2.75;;;1.65;;
67902;SDS011;54708;43.612;1.568;2024-03-07T12:45:50;3.67;;;1.33;;
67902;SDS011;54708;43.612;1.568;2024-03-07T12:48:17;3.13;;;1.50;;
67902;SDS011;54708;43.612;1.568;2024-03-07T12:50:45;4.10;;;1.42;;
67902;SDS011;54708;43.612;1.568;2024-03-07T12:53:11;2.47;;;1.23;;
67902;SDS011;54708;43.612;1.568;2024-03-07T12:55:40;2.10;;;1.20;;
67902;SDS011;54708;43.612;1.568;2024-03-07T12:58:09;8.60;;;2.08;;
67902;SDS011;54708;43.612;1.568;2024-03-07T13:00:36;4.05;;;1.30;;
67902;SDS011;54708;43.612;1.568;2024-03-07T13:03:02;3.17;;;1.70;;
67902;SDS011;54708;43.612;1.568;2024-03-07T13:05:28;5.28;;;1.65;;
67902;SDS011;54708;43.612;1.568;2024-03-07T13:07:53;3.13;;;1.38;;
67902;SDS011;54708;43.612;1.568;2024-03-07T13:10:18;3.22;;;1.30;;
67902;SDS011;54708;43.612;1.568;2024-03-07T13:12:45;1.55;;;1.40;;
67902;SDS011;54708;43.612;1.568;2024-03-07T13:15:16;2.17;;;1.42;;
67902;SDS011;54708;43.612;1.568;2024-03-07T13:17:42;2.13;;;1.02;;
67902;SDS011;54708;43.612;1.568;2024-03-07T13:20:11;5.22;;;1.10;;
67902;SDS011;54708;43.612;1.568;2024-03-07T13:22:40;2.25;;;1.10;;
67902;SDS011;54708;43.612;1.568;2024-03-07T13:25:16;5.28;;;1.48;;
67902;SDS011;54708;43.612;1.568;2024-03-07T13:27:43;3.28;;;1.98;;
67902;SDS011;54708;43.612;1.568;2024-03-07T13:30:16;4.07;;;2.05;;
67902;SDS011;54708;43.612;1.568;2024-03-07T13:32:48;2.80;;;1.03;;
67902;SDS011;54708;43.612;1.568;2024-03-07T13:35:14;3.05;;;1.10;;
67902;SDS011;54708;43.612;1.568;2024-03-07T13:37:40;4.22;;;1.23;;
67902;SDS011;54708;43.612;1.568;2024-03-07T13:40:06;3.78;;;1.38;;
67902;SDS011;54708;43.612;1.568;2024-03-07T13:42:47;2.45;;;1.00;;
67902;SDS011;54708;43.612;1.568;2024-03-07T13:45:16;2.78;;;1.42;;
67902;SDS011;54708;43.612;1.568;2024-03-07T13:47:43;4.20;;;1.23;;
67902;SDS011;54708;43.612;1.568;2024-03-07T13:50:09;3.90;;;1.13;;
67902;SDS011;54708;43.612;1.568;2024-03-07T13:52:37;2.45;;;1.15;;
67902;SDS011;54708;43.612;1.568;2024-03-07T13:55:08;3.10;;;1.48;;
67902;SDS011;54708;43.612;1.568;2024-03-07T14:00:18;3.33;;;1.48;;
67902;SDS011;54708;43.612;1.568;2024-03-07T14:31:26;4.43;;;2.47;;
67902;SDS011;54708;43.612;1.568;2024-03-07T14:36:31;2.50;;;1.30;;
67902;SDS011;54708;43.612;1.568;2024-03-07T14:39:00;7.32;;;1.67;;
67902;SDS011;54708;43.612;1.568;2024-03-07T14:44:17;3.95;;;2.33;;
67902;SDS011;54708;43.612;1.568;2024-03-07T14:46:43;2.95;;;1.80;;
67902;SDS011;54708;43.612;1.568;2024-03-07T14:49:11;4.18;;;1.95;;
67902;SDS011;54708;43.612;1.568;2024-03-07T14:51:40;5.45;;;1.92;;
67902;SDS011;54708;43.612;1.568;2024-03-07T14:54:06;5.78;;;1.48;;
67902;SDS011;54708;43.612;1.568;2024-03-07T14:56:32;8.32;;;1.95;;
67902;SDS011;54708;43.612;1.568;2024-03-07T14:58:59;1.80;;;1.30;;
67902;SDS011;54708;43.612;1.568;2024-03-07T15:01:26;3.03;;;1.40;;
67902;SDS011;54708;43.612;1.568;2024-03-07T15:03:52;2.17;;;1.40;;
67902;SDS011;54708;43.612;1.568;2024-03-07T15:06:18;3.72;;;1.92;;
67902;SDS011;54708;43.612;1.568;2024-03-07T15:08:46;5.63;;;1.80;;
67902;SDS011;54708;43.612;1.568;2024-03-07T15:11:20;2.70;;;1.58;;
67902;SDS011;54708;43.612;1.568;2024-03-07T15:13:49;7.32;;;2.97;;
67902;SDS011;54708;43.612;1.568;2024-03-07T15:16:14;4.32;;;1.67;;
67902;SDS011;54708;43.612;1.568;2024-03-07T15:18:40;5.47;;;2.30;;
67902;SDS011;54708;43.612;1.568;2024-03-07T15:21:08;5.18;;;1.85;;
67902;SDS011;54708;43.612;1.568;2024-03-07T15:23:34;5.05;;;3.05;;
67902;SDS011;54708;43.612;1.568;2024-03-07T15:26:00;6.65;;;1.48;;
67902;SDS011;54708;43.612;1.568;2024-03-07T15:28:27;2.65;;;1.40;;
67902;SDS011;54708;43.612;1.568;2024-03-07T15:30:53;4.68;;;1.88;;
67902;SDS011;54708;43.612;1.568;2024-03-07T15:33:18;4.72;;;1.48;;